Connexion S'enregistrer

Connexion à votre compte

Identifiant
Mot de passe
Maintenir la connexion active sur ce site

Créer un compte

Pour valider ce formulaire, vous devez remplir tous les champs.
Nom
Identifiant
Mot de passe
Répétez le mot de passe
Adresse e-mail
Répétez l'adresse e-mail

Nous contacter

 Téléphone : +33 (0)4 79 54 41 81

Coordonnées détaillées et accès : cliquez ici

 
LFLB °C
    Ferienhaus Ostsee
[source: ADDS]
METAR
LFLB 041800Z AUTO 00000KT CAVOK 13/03 Q1018 NOSIG =
TAF LFLB 041100Z 0412/0512 36008KT CAVOK BECMG 0418/0420 18004KT BECMG 0508/0510 36006KT
TAF
TAF LFLB 041100Z 0412/0512 36008KT CAVOK BECMG 0418/0420 18004KT BECMG 0508/0510 36006KT =
SR / SS: 05:09 / 18:08 UTC (Lever/Coucher du soleil le 2020-04-04)
JSN Boot template designed by JoomlaShine.com